createdAt,value
2022-10-06T00:00:14.088Z,42.79
2022-10-06T00:02:16.367Z,42.97
2022-10-06T00:04:17.964Z,43.78
2022-10-06T00:06:19.666Z,42.73
2022-10-06T00:08:21.189Z,43.11
2022-10-06T00:10:23.070Z,42.95
2022-10-06T00:12:24.601Z,43.39
2022-10-06T00:14:27.070Z,45.00
2022-10-06T00:16:28.991Z,44.32
2022-10-06T00:18:31.026Z,42.90
2022-10-06T00:20:32.860Z,43.20
2022-10-06T00:22:40.454Z,44.21
2022-10-06T00:24:41.996Z,43.20
2022-10-06T00:26:43.576Z,43.05
2022-10-06T00:28:48.699Z,43.54
2022-10-06T00:30:53.408Z,43.22
2022-10-06T00:32:57.377Z,43.67
2022-10-06T00:34:59.610Z,44.64
2022-10-06T00:37:01.130Z,43.75
2022-10-06T00:39:03.624Z,43.89
2022-10-06T00:41:05.426Z,44.04
2022-10-06T00:43:07.046Z,43.78
2022-10-06T00:45:09.004Z,43.69
2022-10-06T00:47:10.775Z,43.62
2022-10-06T00:49:15.205Z,43.77
2022-10-06T00:51:17.081Z,43.88
2022-10-06T00:53:18.828Z,46.81
2022-10-06T00:55:22.500Z,44.80
2022-10-06T00:57:25.538Z,45.15
2022-10-06T00:59:27.071Z,49.17
2022-10-06T01:01:31.982Z,47.95
2022-10-06T01:03:42.331Z,48.45
2022-10-06T01:05:49.133Z,47.89
2022-10-06T01:07:50.784Z,46.81
2022-10-06T01:09:52.630Z,47.14
2022-10-06T01:11:57.514Z,45.42
2022-10-06T01:13:59.148Z,45.72
2022-10-06T01:16:23.254Z,44.94
2022-10-06T01:18:27.201Z,45.71
2022-10-06T01:20:30.081Z,48.50
2022-10-06T01:22:38.604Z,46.93
2022-10-06T01:24:40.328Z,46.52
2022-10-06T01:26:45.912Z,46.15
2022-10-06T01:28:48.435Z,44.04
2022-10-06T01:30:53.452Z,43.63
2022-10-06T01:32:55.184Z,45.15
2022-10-06T01:34:56.706Z,46.03
2022-10-06T01:36:58.326Z,46.71
2022-10-06T01:38:59.863Z,45.79
2022-10-06T01:41:01.437Z,48.35
2022-10-06T01:43:03.028Z,46.52
2022-10-06T01:45:06.104Z,46.12
2022-10-06T01:47:07.796Z,48.97
2022-10-06T01:49:09.407Z,48.76
2022-10-06T01:51:16.154Z,47.20
2022-10-06T01:53:18.121Z,46.92
2022-10-06T01:55:19.885Z,48.82
2022-10-06T01:57:21.500Z,49.80
2022-10-06T01:59:23.280Z,49.37
2022-10-06T02:01:24.848Z,48.81
2022-10-06T02:03:26.462Z,47.97
2022-10-06T02:05:28.033Z,47.99
2022-10-06T02:07:29.681Z,44.87
2022-10-06T02:09:31.362Z,45.62
2022-10-06T02:11:32.937Z,45.59
2022-10-06T02:13:34.923Z,46.26
2022-10-06T02:15:36.573Z,45.29
2022-10-06T02:17:38.926Z,46.93
2022-10-06T02:19:40.475Z,48.26
2022-10-06T02:21:42.185Z,45.24
2022-10-06T02:23:44.256Z,44.85
2022-10-06T02:25:45.804Z,45.01
2022-10-06T02:27:47.596Z,44.27
2022-10-06T02:29:50.078Z,46.03
2022-10-06T02:31:52.209Z,45.43
2022-10-06T02:33:53.786Z,46.30
2022-10-06T02:35:56.380Z,45.19
2022-10-06T02:37:58.364Z,45.37
2022-10-06T02:39:59.981Z,45.32
2022-10-06T02:42:01.532Z,47.04
2022-10-06T02:44:03.156Z,46.11
2022-10-06T02:46:12.177Z,46.06
2022-10-06T02:48:13.797Z,45.83
2022-10-06T02:50:15.426Z,46.35
2022-10-06T02:52:17.203Z,46.45
2022-10-06T02:54:18.715Z,46.49
2022-10-06T02:56:22.965Z,45.62
2022-10-06T02:58:24.788Z,46.15
2022-10-06T03:00:26.733Z,46.12
2022-10-06T03:02:30.616Z,46.38
2022-10-06T03:04:32.477Z,46.51
2022-10-06T03:06:33.978Z,46.53
2022-10-06T03:08:35.578Z,46.70
2022-10-06T03:10:37.123Z,46.47
2022-10-06T03:12:38.646Z,46.38
2022-10-06T03:14:40.197Z,48.43
2022-10-06T03:16:44.495Z,45.70
2022-10-06T03:18:47.423Z,45.98
2022-10-06T03:20:49.580Z,45.81
2022-10-06T03:22:53.491Z,45.69
2022-10-06T03:24:55.159Z,44.85
2022-10-06T03:26:56.747Z,46.09
2022-10-06T03:28:58.484Z,46.27
2022-10-06T03:31:04.003Z,46.07
2022-10-06T03:33:05.607Z,46.13
2022-10-06T03:35:07.804Z,46.46
2022-10-06T03:37:09.521Z,45.31
2022-10-06T03:39:11.168Z,44.94
2022-10-06T03:41:15.319Z,44.74
2022-10-06T03:43:16.862Z,46.64
2022-10-06T03:45:18.434Z,45.82
2022-10-06T03:47:19.974Z,46.57
2022-10-06T03:49:21.480Z,45.91
2022-10-06T03:51:29.825Z,46.22
2022-10-06T03:53:32.580Z,47.03
2022-10-06T03:55:34.097Z,46.55
2022-10-06T03:57:35.659Z,48.02
2022-10-06T03:59:37.180Z,47.26
2022-10-06T04:01:40.871Z,47.48
2022-10-06T04:03:43.195Z,47.95
2022-10-06T04:05:56.201Z,47.51
2022-10-06T04:07:57.753Z,48.15
2022-10-06T04:09:59.717Z,46.29
2022-10-06T04:12:01.231Z,48.02
2022-10-06T04:14:05.454Z,46.65
2022-10-06T04:16:19.008Z,47.13
2022-10-06T04:18:20.603Z,46.87
2022-10-06T04:20:22.183Z,47.69
2022-10-06T04:22:23.791Z,47.35
2022-10-06T04:24:25.427Z,46.31
2022-10-06T04:26:30.744Z,46.92
2022-10-06T04:28:33.752Z,45.94
2022-10-06T04:30:35.956Z,45.98
2022-10-06T04:32:37.471Z,46.08
2022-10-06T04:34:39.033Z,45.57
2022-10-06T04:36:42.610Z,45.83
2022-10-06T04:38:44.156Z,46.64
2022-10-06T04:40:45.691Z,46.53
2022-10-06T04:42:47.207Z,45.85
2022-10-06T04:44:48.731Z,46.07
2022-10-06T04:46:50.345Z,46.76
2022-10-06T04:48:53.484Z,46.17
2022-10-06T04:51:00.653Z,47.83
2022-10-06T04:53:02.257Z,46.54
2022-10-06T04:55:04.348Z,46.18
2022-10-06T04:57:06.038Z,46.10
2022-10-06T04:59:07.634Z,46.39
2022-10-06T05:02:48.242Z,54.15
2022-10-06T05:04:49.860Z,52.50
2022-10-06T05:06:51.411Z,51.72
2022-10-06T05:09:02.230Z,52.23
2022-10-06T05:11:06.862Z,52.10
2022-10-06T05:13:12.585Z,52.12
2022-10-06T05:15:22.228Z,51.00
2022-10-06T05:17:24.038Z,50.90
2022-10-06T05:19:25.585Z,50.73
2022-10-06T05:21:36.242Z,50.45
2022-10-06T05:23:40.045Z,49.87
2022-10-06T05:25:51.607Z,49.26
2022-10-06T05:27:59.337Z,48.95
2022-10-06T05:30:00.889Z,48.47
2022-10-06T05:32:02.708Z,47.83
2022-10-06T05:34:11.266Z,47.15
2022-10-06T05:36:15.927Z,48.31
2022-10-06T05:38:17.472Z,48.12
2022-10-06T05:40:25.252Z,47.49
2022-10-06T05:42:29.648Z,47.61
2022-10-06T05:44:31.493Z,47.94
2022-10-06T05:46:40.250Z,47.18
2022-10-06T05:48:41.743Z,47.49
2022-10-06T05:50:43.305Z,47.44
2022-10-06T05:52:51.270Z,48.64
2022-10-06T05:54:52.792Z,47.48
2022-10-06T05:56:54.409Z,47.20
2022-10-06T05:59:04.290Z,46.96
2022-10-06T06:01:28.434Z,47.75
2022-10-06T06:03:30.035Z,46.82
2022-10-06T06:05:31.600Z,46.71
2022-10-06T06:07:39.292Z,47.99
2022-10-06T06:09:40.917Z,47.23
2022-10-06T06:11:45.768Z,47.12
2022-10-06T06:13:54.303Z,47.86
2022-10-06T06:16:04.203Z,48.79
2022-10-06T06:18:06.224Z,48.28
2022-10-06T06:20:14.316Z,49.80
2022-10-06T06:22:15.846Z,48.79
2022-10-06T06:24:17.827Z,47.99
2022-10-06T06:26:36.327Z,47.17
2022-10-06T06:28:38.429Z,46.79
2022-10-06T06:30:40.090Z,46.01
2022-10-06T06:32:48.332Z,45.51
2022-10-06T06:34:49.917Z,45.37
2022-10-06T06:36:55.097Z,45.55
2022-10-06T06:39:05.358Z,45.72
2022-10-06T06:41:21.239Z,45.42
2022-10-06T06:43:22.986Z,45.44
2022-10-06T06:45:31.332Z,45.27
2022-10-06T06:47:34.957Z,45.92
2022-10-06T06:49:36.486Z,44.88
2022-10-06T06:51:47.327Z,44.74
2022-10-06T06:53:49.541Z,44.70
2022-10-06T06:55:51.579Z,44.53
2022-10-06T06:57:59.362Z,45.40
2022-10-06T07:00:02.652Z,45.74
2022-10-06T07:02:24.460Z,46.25
2022-10-06T07:04:32.354Z,46.04
2022-10-06T07:06:38.024Z,46.41
2022-10-06T07:08:44.598Z,46.19
2022-10-06T07:10:55.373Z,46.27
2022-10-06T07:12:56.987Z,46.23
2022-10-06T07:15:17.053Z,45.08
2022-10-06T07:17:44.372Z,46.87
2022-10-06T07:19:51.616Z,45.94
2022-10-06T07:22:16.125Z,45.52
2022-10-06T07:24:43.491Z,46.14
2022-10-06T07:26:45.148Z,45.65
2022-10-06T07:28:46.737Z,45.69
2022-10-06T07:30:54.412Z,45.78
2022-10-06T07:33:02.409Z,46.22
2022-10-06T07:35:06.471Z,46.10
2022-10-06T07:37:08.003Z,44.87
2022-10-06T07:39:17.414Z,45.68
2022-10-06T07:41:20.344Z,46.66
2022-10-06T07:43:22.522Z,45.04
2022-10-06T07:45:45.584Z,46.73
2022-10-06T07:47:47.174Z,46.48
2022-10-06T07:49:48.723Z,45.74
2022-10-06T07:51:56.474Z,45.32
2022-10-06T07:53:58.122Z,44.64
2022-10-06T07:56:07.292Z,44.16
2022-10-06T07:58:22.448Z,44.74
2022-10-06T08:00:26.650Z,44.59
2022-10-06T08:02:48.478Z,44.46
2022-10-06T08:04:50.040Z,44.25
2022-10-06T08:06:51.632Z,45.45
2022-10-06T08:08:59.484Z,44.04
2022-10-06T08:11:01.929Z,44.48
2022-10-06T08:13:07.671Z,45.06
2022-10-06T08:15:18.460Z,44.67
2022-10-06T08:17:19.990Z,43.92
2022-10-06T08:19:21.505Z,44.01
2022-10-06T08:21:37.537Z,43.92
2022-10-06T08:23:40.509Z,43.81
2022-10-06T08:25:50.907Z,44.05
2022-10-06T08:27:59.487Z,43.55
2022-10-06T08:30:01.222Z,44.59
2022-10-06T08:32:09.486Z,44.85
2022-10-06T08:34:12.399Z,44.62
2022-10-06T08:36:19.294Z,45.49
2022-10-06T08:38:28.485Z,44.45
2022-10-06T08:40:30.075Z,44.03
2022-10-06T08:42:42.473Z,43.27
2022-10-06T08:45:02.505Z,42.98
2022-10-06T08:47:11.766Z,42.70
2022-10-06T08:49:22.056Z,43.34
2022-10-06T08:51:42.495Z,42.51
2022-10-06T08:53:52.914Z,43.89
2022-10-06T08:56:19.353Z,42.22
2022-10-06T08:58:37.510Z,42.49
2022-10-06T09:00:39.179Z,43.14
2022-10-06T09:03:02.523Z,42.85
2022-10-06T09:05:06.334Z,42.23
2022-10-06T09:07:33.143Z,44.28
2022-10-06T09:10:15.546Z,42.22
2022-10-06T09:12:34.705Z,42.94
2022-10-06T09:14:53.735Z,42.57
2022-10-06T09:17:07.572Z,41.98
2022-10-06T09:19:21.257Z,41.69
2022-10-06T09:21:39.966Z,42.59
2022-10-06T09:23:54.548Z,42.80
2022-10-06T09:26:04.608Z,41.56
2022-10-06T09:28:15.729Z,42.62
2022-10-06T09:30:17.925Z,41.00
2022-10-06T09:32:28.544Z,42.48
2022-10-06T09:34:40.635Z,41.63
2022-10-06T09:37:13.622Z,41.26
2022-10-06T09:39:33.557Z,40.79
2022-10-06T09:41:40.301Z,41.75
2022-10-06T09:43:52.995Z,42.33
2022-10-06T09:46:02.601Z,41.64
2022-10-06T09:48:25.131Z,41.73
2022-10-06T09:50:28.247Z,41.34
2022-10-06T09:52:36.594Z,40.26
2022-10-06T09:54:41.832Z,39.76
2022-10-06T09:56:47.180Z,39.60
2022-10-06T09:59:02.597Z,40.52
2022-10-06T10:01:25.683Z,40.73
2022-10-06T10:03:56.550Z,41.28
2022-10-06T10:06:09.138Z,41.59
2022-10-06T10:08:19.778Z,42.37
2022-10-06T10:10:23.916Z,42.54
2022-10-06T10:12:30.130Z,41.12
2022-10-06T10:14:44.612Z,42.28
2022-10-06T10:16:52.326Z,42.68
2022-10-06T10:18:55.797Z,41.42
2022-10-06T10:21:11.631Z,42.25
2022-10-06T10:23:31.583Z,40.35
2022-10-06T10:25:45.600Z,43.93
2022-10-06T10:28:06.680Z,46.24
2022-10-06T10:30:10.582Z,45.59
2022-10-06T10:32:29.885Z,44.63
2022-10-06T10:34:48.646Z,45.44
2022-10-06T10:36:57.771Z,44.39
2022-10-06T10:39:01.420Z,44.88
2022-10-06T10:41:16.655Z,46.60
2022-10-06T10:43:42.776Z,46.71
2022-10-06T10:45:59.700Z,46.72
2022-10-06T10:48:13.893Z,47.70
2022-10-06T10:51:32.279Z,47.00
2022-10-06T10:53:49.795Z,47.92
2022-10-06T10:55:53.384Z,46.61
2022-10-06T10:58:19.655Z,46.10
2022-10-06T11:03:21.422Z,53.17
2022-10-06T11:05:43.067Z,49.27
2022-10-06T11:08:03.475Z,46.79
2022-10-06T11:10:16.503Z,47.30
2022-10-06T11:12:54.331Z,47.64
2022-10-06T11:14:59.798Z,47.10
2022-10-06T11:17:19.184Z,47.08
2022-10-06T11:19:27.743Z,46.38
2022-10-06T11:21:41.235Z,47.72
2022-10-06T11:24:04.928Z,44.92
2022-10-06T11:26:44.654Z,44.59
2022-10-06T11:29:07.751Z,44.07
2022-10-06T11:31:30.787Z,43.87
2022-10-06T11:33:42.300Z,43.73
2022-10-06T11:35:46.370Z,43.71
2022-10-06T11:38:04.215Z,43.23
2022-10-06T11:40:50.825Z,44.06
2022-10-06T11:43:03.883Z,42.83
2022-10-06T11:45:13.939Z,41.85
2022-10-06T11:47:28.200Z,43.10
2022-10-06T11:49:57.255Z,41.90
2022-10-06T11:52:08.625Z,41.15
2022-10-06T11:54:44.607Z,40.93
2022-10-06T11:56:46.628Z,41.37
2022-10-06T11:58:51.183Z,40.42
2022-10-06T12:00:52.811Z,41.00
2022-10-06T12:02:54.501Z,43.85
2022-10-06T12:05:54.832Z,47.25
2022-10-06T12:07:54.748Z,47.78
2022-10-06T12:10:28.349Z,48.01
2022-10-06T12:12:29.847Z,47.35
2022-10-06T12:16:32.358Z,44.94
2022-10-06T12:17:38.672Z,46.29
2022-10-06T12:19:49.767Z,46.66
2022-10-06T12:22:01.272Z,43.66
2022-10-06T12:24:45.184Z,45.93
2022-10-06T12:26:52.876Z,45.68
2022-10-06T12:29:04.968Z,46.34
2022-10-06T12:31:06.537Z,47.59
2022-10-06T12:33:17.104Z,46.54
2022-10-06T12:35:31.387Z,46.98
2022-10-06T12:37:40.779Z,45.73
2022-10-06T12:39:42.393Z,46.04
2022-10-06T12:42:03.226Z,45.46
2022-10-06T12:44:23.471Z,44.83
2022-10-06T12:46:32.909Z,42.84
2022-10-06T12:48:55.616Z,42.55
2022-10-06T12:51:20.000Z,43.78
2022-10-06T12:53:28.835Z,41.20
2022-10-06T12:55:49.071Z,42.54
2022-10-06T12:57:53.301Z,43.76
2022-10-06T12:59:54.912Z,44.36
2022-10-06T13:02:00.236Z,43.45
2022-10-06T13:04:01.878Z,43.58
2022-10-06T13:06:06.219Z,41.57
2022-10-06T13:08:22.787Z,41.77
2022-10-06T13:10:24.512Z,43.58
2022-10-06T13:12:38.058Z,44.93
2022-10-06T13:14:40.764Z,44.69
2022-10-06T13:16:45.891Z,45.80
2022-10-06T13:18:48.560Z,45.08
2022-10-06T13:20:55.468Z,44.91
2022-10-06T13:23:34.028Z,42.51
2022-10-06T13:25:48.861Z,43.19
2022-10-06T13:27:51.978Z,45.57
2022-10-06T13:30:19.011Z,44.75
2022-10-06T13:32:20.755Z,42.15
2022-10-06T13:34:43.135Z,43.35
2022-10-06T13:36:50.524Z,43.60
2022-10-06T13:38:53.421Z,43.90
2022-10-06T13:41:06.594Z,43.20
2022-10-06T13:43:16.681Z,42.83
2022-10-06T13:45:18.343Z,44.43
2022-10-06T13:47:22.542Z,44.63
2022-10-06T13:49:47.175Z,43.00
2022-10-06T13:51:51.910Z,42.48
2022-10-06T13:53:54.558Z,41.31
2022-10-06T13:55:56.180Z,40.22
2022-10-06T13:58:01.976Z,41.49
2022-10-06T14:00:21.783Z,43.04
2022-10-06T14:02:25.740Z,42.46
2022-10-06T14:04:27.600Z,42.82
2022-10-06T14:06:29.191Z,44.10
2022-10-06T14:08:31.039Z,43.51
2022-10-06T14:10:57.175Z,43.21
2022-10-06T14:13:01.200Z,43.78
2022-10-06T14:15:03.218Z,41.75
2022-10-06T14:17:05.014Z,42.29
2022-10-06T14:19:06.844Z,41.94
2022-10-06T14:21:39.345Z,42.25
2022-10-06T14:23:42.977Z,42.04
2022-10-06T14:25:44.537Z,43.72
2022-10-06T14:27:46.123Z,41.38
2022-10-06T14:29:47.800Z,42.62
2022-10-06T14:31:49.677Z,41.92
2022-10-06T14:33:52.698Z,43.74
2022-10-06T14:35:54.486Z,43.60
2022-10-06T14:37:56.039Z,44.43
2022-10-06T14:39:57.939Z,44.00
2022-10-06T14:42:00.124Z,44.05
2022-10-06T14:44:08.629Z,43.21
2022-10-06T14:46:11.645Z,43.73
2022-10-06T14:48:15.350Z,44.40
2022-10-06T14:50:16.901Z,44.56
2022-10-06T14:52:19.428Z,42.16
2022-10-06T14:54:21.502Z,42.17
2022-10-06T14:56:25.760Z,42.64
2022-10-06T14:58:27.354Z,44.08
2022-10-06T15:00:29.083Z,42.63
2022-10-06T15:02:30.820Z,42.13
2022-10-06T15:04:33.717Z,43.03
2022-10-06T15:06:53.884Z,43.09
2022-10-06T15:08:59.282Z,42.54
2022-10-06T15:11:00.811Z,43.88
2022-10-06T15:13:02.335Z,44.37
2022-10-06T15:15:07.671Z,43.29
2022-10-06T15:17:09.282Z,42.40
2022-10-06T15:19:12.116Z,41.50
2022-10-06T15:21:13.672Z,41.04
2022-10-06T15:23:15.283Z,40.67
2022-10-06T15:25:35.540Z,40.71
2022-10-06T15:27:56.094Z,41.87
2022-10-06T15:29:57.798Z,40.40
2022-10-06T15:32:00.394Z,40.62
2022-10-06T15:34:04.166Z,41.98
2022-10-06T15:36:20.152Z,41.57
2022-10-06T15:38:21.676Z,41.78
2022-10-06T15:40:23.295Z,41.86
2022-10-06T15:42:25.363Z,41.33
2022-10-06T15:44:26.970Z,42.23
2022-10-06T15:46:36.112Z,42.83
2022-10-06T15:48:37.655Z,41.75
2022-10-06T15:50:39.497Z,41.34
2022-10-06T15:52:41.049Z,40.38
2022-10-06T15:54:43.738Z,41.01
2022-10-06T15:56:47.636Z,41.48
2022-10-06T15:58:49.246Z,41.57
2022-10-06T16:00:50.770Z,40.92
2022-10-06T16:02:52.361Z,40.94
2022-10-06T16:05:16.496Z,40.96
2022-10-06T16:07:19.671Z,39.96
2022-10-06T16:09:32.260Z,40.50
2022-10-06T16:11:33.893Z,41.31
2022-10-06T16:13:35.469Z,41.11
2022-10-06T16:15:37.020Z,40.21
2022-10-06T16:17:38.876Z,40.30
2022-10-06T16:19:41.102Z,40.87
2022-10-06T16:21:43.032Z,40.93
2022-10-06T16:23:44.963Z,41.01
2022-10-06T16:25:46.575Z,40.99
2022-10-06T16:27:48.128Z,40.97
2022-10-06T16:29:49.862Z,41.09
2022-10-06T16:31:51.739Z,41.33
2022-10-06T16:33:53.639Z,41.10
2022-10-06T16:35:59.269Z,41.04
2022-10-06T16:38:00.900Z,41.57
2022-10-06T16:40:02.421Z,42.07
2022-10-06T16:42:04.241Z,42.28
2022-10-06T16:44:05.847Z,41.29
2022-10-06T16:46:10.301Z,42.54
2022-10-06T16:48:12.050Z,42.65
2022-10-06T16:50:13.628Z,42.04
2022-10-06T16:52:15.144Z,41.83
2022-10-06T16:54:20.939Z,42.03
2022-10-06T16:56:29.807Z,43.17
2022-10-06T16:58:43.450Z,42.98
2022-10-06T17:00:45.069Z,41.96
2022-10-06T17:02:46.720Z,41.40
2022-10-06T17:04:48.223Z,41.15
2022-10-06T17:06:54.546Z,42.03
2022-10-06T17:08:56.687Z,42.72
2022-10-06T17:11:09.936Z,42.83
2022-10-06T17:13:11.479Z,42.42
2022-10-06T17:15:13.090Z,43.36
2022-10-06T17:17:14.699Z,43.14
2022-10-06T17:19:18.599Z,44.24
2022-10-06T17:21:44.315Z,43.30
2022-10-06T17:23:43.638Z,43.72
2022-10-06T17:25:45.248Z,44.20
2022-10-06T17:27:46.789Z,43.88
2022-10-06T17:29:49.220Z,43.41
2022-10-06T17:31:59.397Z,42.49
2022-10-06T17:34:02.553Z,42.13
2022-10-06T17:36:14.666Z,41.87
2022-10-06T17:38:16.233Z,40.48
2022-10-06T17:40:18.668Z,40.02
2022-10-06T17:42:20.215Z,40.30
2022-10-06T17:44:27.324Z,40.11
2022-10-06T17:46:31.361Z,40.35
2022-10-06T17:48:33.502Z,40.63
2022-10-06T17:50:35.102Z,40.78
2022-10-06T17:52:38.715Z,40.91
2022-10-06T17:54:41.521Z,40.79
2022-10-06T17:56:44.835Z,41.60
2022-10-06T17:58:54.646Z,41.12
2022-10-06T18:00:56.259Z,41.44
2022-10-06T18:03:00.153Z,41.08
2022-10-06T18:05:01.706Z,41.17
2022-10-06T18:07:03.930Z,40.91
2022-10-06T18:09:06.607Z,40.39
2022-10-06T18:11:29.350Z,40.79
2022-10-06T18:13:32.008Z,41.00
2022-10-06T18:15:37.176Z,40.82
2022-10-06T18:17:38.801Z,41.10
2022-10-06T18:19:40.433Z,41.39
2022-10-06T18:21:44.721Z,40.99
2022-10-06T18:23:47.600Z,40.43
2022-10-06T18:25:49.133Z,40.12
2022-10-06T18:27:51.635Z,40.31
2022-10-06T18:29:53.332Z,40.63
2022-10-06T18:31:55.982Z,40.69
2022-10-06T18:36:24.018Z,40.28
2022-10-06T18:38:27.199Z,39.65
2022-10-06T18:40:28.877Z,39.80
2022-10-06T18:42:30.483Z,40.05
2022-10-06T18:44:50.639Z,40.06
2022-10-06T18:47:10.925Z,39.61
2022-10-06T18:49:15.801Z,39.01
2022-10-06T18:51:17.591Z,39.02
2022-10-06T18:53:19.577Z,39.09
2022-10-06T18:55:21.343Z,39.24
2022-10-06T18:57:27.667Z,38.86
2022-10-06T18:59:32.763Z,38.47
2022-10-06T19:01:35.166Z,39.02
2022-10-06T19:03:37.220Z,38.72
2022-10-06T19:05:38.776Z,38.47
2022-10-06T19:07:40.643Z,39.15
2022-10-06T19:09:46.443Z,38.66
2022-10-06T19:11:51.260Z,39.16
2022-10-06T19:13:53.733Z,39.46
2022-10-06T19:15:55.366Z,38.89
2022-10-06T19:17:56.920Z,39.73
2022-10-06T19:19:58.471Z,38.57
2022-10-06T19:22:02.723Z,38.58
2022-10-06T19:24:05.544Z,39.34
2022-10-06T19:26:11.054Z,38.97
2022-10-06T19:28:12.680Z,39.38
2022-10-06T19:30:14.882Z,38.93
2022-10-06T19:32:20.157Z,38.74
2022-10-06T19:34:22.897Z,38.62
2022-10-06T19:36:26.276Z,39.18
2022-10-06T19:38:28.748Z,38.29
2022-10-06T19:40:30.326Z,38.96
2022-10-06T19:42:51.164Z,38.67
2022-10-06T19:44:52.817Z,38.99
2022-10-06T19:46:55.245Z,38.96
2022-10-06T19:48:59.046Z,38.67
2022-10-06T19:51:00.658Z,39.06
2022-10-06T19:53:04.690Z,39.01
2022-10-06T19:55:06.399Z,39.07
2022-10-06T19:57:08.871Z,38.37
2022-10-06T19:59:18.269Z,38.87
2022-10-06T20:01:20.459Z,38.72
2022-10-06T20:03:22.025Z,38.84
2022-10-06T20:05:23.604Z,39.52
2022-10-06T20:07:27.828Z,38.95
2022-10-06T20:09:33.673Z,39.21
2022-10-06T20:11:37.910Z,38.81
2022-10-06T20:13:40.750Z,38.98
2022-10-06T20:15:42.297Z,39.05
2022-10-06T20:17:45.527Z,39.76
2022-10-06T20:19:47.310Z,39.33
2022-10-06T20:21:49.151Z,39.92
2022-10-06T20:23:56.380Z,40.41
2022-10-06T20:26:08.079Z,40.81
2022-10-06T20:28:10.563Z,40.96
2022-10-06T20:30:12.392Z,40.48
2022-10-06T20:32:14.162Z,40.65
2022-10-06T20:34:18.513Z,41.07
2022-10-06T20:36:20.371Z,40.33
2022-10-06T20:38:41.840Z,41.21
2022-10-06T20:40:49.181Z,41.18
2022-10-06T20:42:54.822Z,41.24
2022-10-06T20:44:56.348Z,41.59
2022-10-06T20:46:57.972Z,40.92
2022-10-06T20:49:18.580Z,41.75
2022-10-06T20:51:24.213Z,41.95
2022-10-06T20:53:32.005Z,42.44
2022-10-06T20:55:35.158Z,42.01
2022-10-06T20:57:36.911Z,42.84
2022-10-06T20:59:38.644Z,43.45
2022-10-06T21:01:40.890Z,43.38
2022-10-06T21:03:44.741Z,43.92
2022-10-06T21:05:50.225Z,43.04
2022-10-06T21:07:51.927Z,44.19
2022-10-06T21:09:53.482Z,44.47
2022-10-06T21:11:55.385Z,44.38
2022-10-06T21:13:57.623Z,45.52
2022-10-06T21:16:00.263Z,44.33
2022-10-06T21:18:02.510Z,44.06
2022-10-06T21:20:04.653Z,43.95
2022-10-06T21:22:06.917Z,43.94
2022-10-06T21:24:08.658Z,44.61
2022-10-06T21:26:15.545Z,44.63
2022-10-06T21:28:18.606Z,44.06
2022-10-06T21:30:20.327Z,45.30
2022-10-06T21:32:21.899Z,45.64
2022-10-06T21:34:23.445Z,46.81
2022-10-06T21:36:27.436Z,46.94
2022-10-06T21:38:30.222Z,46.61
2022-10-06T21:40:35.652Z,46.59
2022-10-06T21:42:37.229Z,45.66
2022-10-06T21:44:38.825Z,46.38
2022-10-06T21:46:52.644Z,46.29
2022-10-06T21:48:55.857Z,46.03
2022-10-06T21:50:57.425Z,45.97
2022-10-06T21:52:58.985Z,46.55
2022-10-06T21:55:00.599Z,45.61
2022-10-06T21:57:02.185Z,44.94
2022-10-06T21:59:04.777Z,44.63
2022-10-06T22:01:08.226Z,44.00
2022-10-06T22:03:09.966Z,46.46
2022-10-06T22:05:11.560Z,45.72
2022-10-06T22:07:13.212Z,45.65
2022-10-06T22:09:17.175Z,45.16
2022-10-06T22:11:34.342Z,44.37
2022-10-06T22:13:36.177Z,44.50
2022-10-06T22:15:37.808Z,45.16
2022-10-06T22:17:39.502Z,45.29
2022-10-06T22:19:41.139Z,45.06
2022-10-06T22:21:46.965Z,44.50
2022-10-06T22:23:54.788Z,43.92
2022-10-06T22:25:57.599Z,45.16
2022-10-06T22:27:59.253Z,45.19
2022-10-06T22:30:00.934Z,45.64
2022-10-06T22:32:02.634Z,45.19
2022-10-06T22:34:07.732Z,44.47
2022-10-06T22:36:12.196Z,44.20
2022-10-06T22:38:13.870Z,45.23
2022-10-06T22:40:15.560Z,45.76
2022-10-06T22:42:17.333Z,46.21
2022-10-06T22:44:18.997Z,45.54
2022-10-06T22:46:20.636Z,45.39
2022-10-06T22:48:23.000Z,45.84
2022-10-06T22:50:24.696Z,46.12
2022-10-06T22:52:26.339Z,45.34
2022-10-06T22:54:30.072Z,45.76
2022-10-06T22:56:33.307Z,44.83
2022-10-06T22:58:35.263Z,45.48
2022-10-06T23:00:37.252Z,44.89
2022-10-06T23:02:38.920Z,44.63
2022-10-06T23:04:40.514Z,44.62
2022-10-06T23:06:42.199Z,45.05
2022-10-06T23:08:43.888Z,44.91
2022-10-06T23:10:45.480Z,45.96
2022-10-06T23:12:47.961Z,45.54
2022-10-06T23:14:49.628Z,45.76
2022-10-06T23:16:51.352Z,45.76
2022-10-06T23:18:53.102Z,45.92
2022-10-06T23:20:54.803Z,44.95
2022-10-06T23:22:56.503Z,45.64
2022-10-06T23:24:58.173Z,45.88
2022-10-06T23:27:04.351Z,45.07
2022-10-06T23:29:07.298Z,45.21
2022-10-06T23:31:10.306Z,45.41
2022-10-06T23:33:11.999Z,45.90
2022-10-06T23:35:13.661Z,46.59
2022-10-06T23:37:15.515Z,46.42
2022-10-06T23:39:17.234Z,46.86
2022-10-06T23:41:19.725Z,46.46
2022-10-06T23:43:22.817Z,46.09
2022-10-06T23:45:24.619Z,46.57
2022-10-06T23:47:26.259Z,46.93
2022-10-06T23:49:27.876Z,46.80
2022-10-06T23:51:29.676Z,47.02
2022-10-06T23:53:32.233Z,46.78
2022-10-06T23:55:33.908Z,47.09
2022-10-06T23:57:35.554Z,46.95
2022-10-06T23:59:37.173Z,46.41
